sensor_id;sensor_type;location;lat;lon;timestamp;P1;durP1;ratioP1;P2;durP2;ratioP2
6665;SDS011;3369;49.906;8.598;2022-12-29T00:00:05;2.40;;;2.20;;
6665;SDS011;3369;49.906;8.598;2022-12-29T00:02:32;1.97;;;1.87;;
6665;SDS011;3369;49.906;8.598;2022-12-29T00:04:58;2.87;;;2.00;;
6665;SDS011;3369;49.906;8.598;2022-12-29T00:07:24;3.17;;;2.20;;
6665;SDS011;3369;49.906;8.598;2022-12-29T00:09:49;2.17;;;1.97;;
6665;SDS011;3369;49.906;8.598;2022-12-29T00:12:15;3.23;;;2.40;;
6665;SDS011;3369;49.906;8.598;2022-12-29T00:14:40;2.17;;;2.07;;
6665;SDS011;3369;49.906;8.598;2022-12-29T00:17:24;2.83;;;1.93;;
6665;SDS011;3369;49.906;8.598;2022-12-29T00:19:50;4.23;;;1.83;;
6665;SDS011;3369;49.906;8.598;2022-12-29T00:22:34;5.67;;;2.30;;
6665;SDS011;3369;49.906;8.598;2022-12-29T00:25:18;3.73;;;2.23;;
6665;SDS011;3369;49.906;8.598;2022-12-29T00:28:02;3.97;;;2.17;;
6665;SDS011;3369;49.906;8.598;2022-12-29T00:30:47;3.13;;;2.00;;
6665;SDS011;3369;49.906;8.598;2022-12-29T00:33:32;2.30;;;2.10;;
6665;SDS011;3369;49.906;8.598;2022-12-29T00:36:18;2.43;;;2.00;;
6665;SDS011;3369;49.906;8.598;2022-12-29T00:38:58;4.70;;;2.23;;
6665;SDS011;3369;49.906;8.598;2022-12-29T00:41:50;3.57;;;2.10;;
6665;SDS011;3369;49.906;8.598;2022-12-29T00:44:34;2.67;;;2.07;;
6665;SDS011;3369;49.906;8.598;2022-12-29T00:46:59;3.40;;;1.80;;
6665;SDS011;3369;49.906;8.598;2022-12-29T00:49:28;1.70;;;1.60;;
6665;SDS011;3369;49.906;8.598;2022-12-29T00:51:58;3.10;;;1.60;;
6665;SDS011;3369;49.906;8.598;2022-12-29T00:54:38;1.63;;;1.53;;
6665;SDS011;3369;49.906;8.598;2022-12-29T00:57:05;1.33;;;1.23;;
6665;SDS011;3369;49.906;8.598;2022-12-29T00:59:34;1.87;;;1.30;;
6665;SDS011;3369;49.906;8.598;2022-12-29T01:02:07;1.73;;;1.37;;
6665;SDS011;3369;49.906;8.598;2022-12-29T01:04:33;2.20;;;1.40;;
6665;SDS011;3369;49.906;8.598;2022-12-29T01:06:59;2.20;;;1.33;;
6665;SDS011;3369;49.906;8.598;2022-12-29T01:09:25;1.50;;;1.40;;
6665;SDS011;3369;49.906;8.598;2022-12-29T01:12:09;1.73;;;1.37;;
6665;SDS011;3369;49.906;8.598;2022-12-29T01:14:36;4.20;;;1.33;;
6665;SDS011;3369;49.906;8.598;2022-12-29T01:17:02;1.40;;;1.30;;
6665;SDS011;3369;49.906;8.598;2022-12-29T01:19:28;2.83;;;1.37;;
6665;SDS011;3369;49.906;8.598;2022-12-29T01:21:54;1.37;;;1.10;;
6665;SDS011;3369;49.906;8.598;2022-12-29T01:24:20;1.40;;;1.30;;
6665;SDS011;3369;49.906;8.598;2022-12-29T01:26:46;1.03;;;1.03;;
6665;SDS011;3369;49.906;8.598;2022-12-29T01:29:13;1.10;;;1.10;;
6665;SDS011;3369;49.906;8.598;2022-12-29T01:31:39;1.40;;;1.30;;
6665;SDS011;3369;49.906;8.598;2022-12-29T01:34:05;2.20;;;1.40;;
6665;SDS011;3369;49.906;8.598;2022-12-29T01:36:31;1.53;;;1.10;;
6665;SDS011;3369;49.906;8.598;2022-12-29T01:38:57;2.63;;;1.33;;
6665;SDS011;3369;49.906;8.598;2022-12-29T01:41:23;1.30;;;1.20;;
6665;SDS011;3369;49.906;8.598;2022-12-29T01:43:54;3.73;;;1.30;;
6665;SDS011;3369;49.906;8.598;2022-12-29T01:46:37;2.23;;;1.17;;
6665;SDS011;3369;49.906;8.598;2022-12-29T01:49:19;1.10;;;1.00;;
6665;SDS011;3369;49.906;8.598;2022-12-29T01:51:58;1.63;;;1.50;;
6665;SDS011;3369;49.906;8.598;2022-12-29T01:54:31;1.20;;;1.10;;
6665;SDS011;3369;49.906;8.598;2022-12-29T01:57:05;1.20;;;1.10;;
6665;SDS011;3369;49.906;8.598;2022-12-29T01:59:39;1.27;;;0.80;;
6665;SDS011;3369;49.906;8.598;2022-12-29T02:02:08;1.73;;;0.97;;
6665;SDS011;3369;49.906;8.598;2022-12-29T02:04:34;1.10;;;1.00;;
6665;SDS011;3369;49.906;8.598;2022-12-29T02:07:04;2.13;;;1.00;;
6665;SDS011;3369;49.906;8.598;2022-12-29T02:09:33;1.93;;;0.87;;
6665;SDS011;3369;49.906;8.598;2022-12-29T02:11:59;2.40;;;1.20;;
6665;SDS011;3369;49.906;8.598;2022-12-29T02:14:25;1.70;;;0.80;;
6665;SDS011;3369;49.906;8.598;2022-12-29T02:50:01;1.33;;;1.13;;
6665;SDS011;3369;49.906;8.598;2022-12-29T02:52:54;3.17;;;1.13;;
6665;SDS011;3369;49.906;8.598;2022-12-29T02:55:24;1.10;;;1.00;;
6665;SDS011;3369;49.906;8.598;2022-12-29T02:58:05;0.90;;;0.90;;
6665;SDS011;3369;49.906;8.598;2022-12-29T03:00:38;2.00;;;1.10;;
6665;SDS011;3369;49.906;8.598;2022-12-29T03:03:30;1.60;;;1.37;;
6665;SDS011;3369;49.906;8.598;2022-12-29T03:06:25;2.30;;;1.03;;
6665;SDS011;3369;49.906;8.598;2022-12-29T03:09:35;0.70;;;0.70;;
6665;SDS011;3369;49.906;8.598;2022-12-29T03:12:42;1.50;;;1.03;;
6665;SDS011;3369;49.906;8.598;2022-12-29T03:15:39;1.97;;;1.47;;
6665;SDS011;3369;49.906;8.598;2022-12-29T03:18:40;2.40;;;1.20;;
6665;SDS011;3369;49.906;8.598;2022-12-29T03:24:13;1.47;;;1.20;;
6665;SDS011;3369;49.906;8.598;2022-12-29T03:26:40;0.83;;;0.83;;
6665;SDS011;3369;49.906;8.598;2022-12-29T03:29:07;3.13;;;1.23;;
6665;SDS011;3369;49.906;8.598;2022-12-29T03:31:35;1.47;;;0.97;;
6665;SDS011;3369;49.906;8.598;2022-12-29T03:34:02;2.93;;;0.97;;
6665;SDS011;3369;49.906;8.598;2022-12-29T03:36:32;1.93;;;1.10;;
6665;SDS011;3369;49.906;8.598;2022-12-29T03:39:09;1.60;;;0.97;;
6665;SDS011;3369;49.906;8.598;2022-12-29T03:41:42;2.47;;;1.10;;
6665;SDS011;3369;49.906;8.598;2022-12-29T03:44:10;1.20;;;1.10;;
6665;SDS011;3369;49.906;8.598;2022-12-29T03:46:37;0.93;;;0.93;;
6665;SDS011;3369;49.906;8.598;2022-12-29T03:49:03;1.90;;;1.10;;
6665;SDS011;3369;49.906;8.598;2022-12-29T03:51:29;1.63;;;0.90;;
6665;SDS011;3369;49.906;8.598;2022-12-29T03:53:54;1.30;;;0.90;;
6665;SDS011;3369;49.906;8.598;2022-12-29T03:56:20;2.17;;;1.13;;
6665;SDS011;3369;49.906;8.598;2022-12-29T03:58:45;1.27;;;1.20;;
6665;SDS011;3369;49.906;8.598;2022-12-29T04:01:11;3.20;;;1.20;;
6665;SDS011;3369;49.906;8.598;2022-12-29T04:03:37;1.10;;;1.10;;
6665;SDS011;3369;49.906;8.598;2022-12-29T04:06:03;3.57;;;1.17;;
6665;SDS011;3369;49.906;8.598;2022-12-29T04:08:29;3.57;;;1.20;;
6665;SDS011;3369;49.906;8.598;2022-12-29T04:10:55;1.47;;;1.20;;
6665;SDS011;3369;49.906;8.598;2022-12-29T04:13:20;1.50;;;1.40;;
6665;SDS011;3369;49.906;8.598;2022-12-29T04:15:46;1.40;;;1.30;;
6665;SDS011;3369;49.906;8.598;2022-12-29T04:18:12;1.63;;;1.00;;
6665;SDS011;3369;49.906;8.598;2022-12-29T04:20:38;1.60;;;1.30;;
6665;SDS011;3369;49.906;8.598;2022-12-29T04:23:22;2.77;;;1.27;;
6665;SDS011;3369;49.906;8.598;2022-12-29T04:25:48;2.40;;;1.10;;
6665;SDS011;3369;49.906;8.598;2022-12-29T04:28:14;1.30;;;1.20;;
6665;SDS011;3369;49.906;8.598;2022-12-29T04:30:40;2.37;;;1.50;;
6665;SDS011;3369;49.906;8.598;2022-12-29T04:33:07;1.20;;;1.00;;
6665;SDS011;3369;49.906;8.598;2022-12-29T04:35:32;1.40;;;1.23;;
6665;SDS011;3369;49.906;8.598;2022-12-29T04:37:58;1.50;;;1.30;;
6665;SDS011;3369;49.906;8.598;2022-12-29T04:40:23;1.33;;;0.90;;
6665;SDS011;3369;49.906;8.598;2022-12-29T04:42:49;1.47;;;1.20;;
6665;SDS011;3369;49.906;8.598;2022-12-29T04:45:15;2.50;;;1.17;;
6665;SDS011;3369;49.906;8.598;2022-12-29T04:47:41;1.53;;;1.13;;
6665;SDS011;3369;49.906;8.598;2022-12-29T04:50:07;1.17;;;1.00;;
6665;SDS011;3369;49.906;8.598;2022-12-29T04:52:33;1.40;;;1.30;;
6665;SDS011;3369;49.906;8.598;2022-12-29T04:54:59;1.53;;;1.23;;
6665;SDS011;3369;49.906;8.598;2022-12-29T04:57:24;2.90;;;1.13;;
6665;SDS011;3369;49.906;8.598;2022-12-29T04:59:50;3.70;;;1.20;;
6665;SDS011;3369;49.906;8.598;2022-12-29T05:02:16;2.20;;;1.63;;
6665;SDS011;3369;49.906;8.598;2022-12-29T05:04:42;1.97;;;1.30;;
6665;SDS011;3369;49.906;8.598;2022-12-29T05:07:08;1.50;;;1.40;;
6665;SDS011;3369;49.906;8.598;2022-12-29T05:09:33;1.67;;;1.20;;
6665;SDS011;3369;49.906;8.598;2022-12-29T05:11:59;1.57;;;1.30;;
6665;SDS011;3369;49.906;8.598;2022-12-29T05:14:25;1.77;;;1.00;;
6665;SDS011;3369;49.906;8.598;2022-12-29T05:16:50;3.97;;;2.03;;
6665;SDS011;3369;49.906;8.598;2022-12-29T05:19:16;2.20;;;1.27;;
6665;SDS011;3369;49.906;8.598;2022-12-29T05:21:42;1.20;;;1.10;;
6665;SDS011;3369;49.906;8.598;2022-12-29T05:24:08;1.73;;;1.33;;
6665;SDS011;3369;49.906;8.598;2022-12-29T05:26:34;1.20;;;1.10;;
6665;SDS011;3369;49.906;8.598;2022-12-29T05:28:59;2.20;;;1.10;;
6665;SDS011;3369;49.906;8.598;2022-12-29T05:31:25;2.27;;;1.30;;
6665;SDS011;3369;49.906;8.598;2022-12-29T05:33:51;3.07;;;1.13;;
6665;SDS011;3369;49.906;8.598;2022-12-29T05:36:17;1.00;;;0.90;;
6665;SDS011;3369;49.906;8.598;2022-12-29T05:38:43;2.30;;;1.13;;
6665;SDS011;3369;49.906;8.598;2022-12-29T05:41:08;1.90;;;1.37;;
6665;SDS011;3369;49.906;8.598;2022-12-29T05:43:34;1.30;;;1.20;;
6665;SDS011;3369;49.906;8.598;2022-12-29T05:46:00;3.10;;;1.20;;
6665;SDS011;3369;49.906;8.598;2022-12-29T05:48:26;1.27;;;1.17;;
6665;SDS011;3369;49.906;8.598;2022-12-29T05:50:51;1.93;;;1.00;;
6665;SDS011;3369;49.906;8.598;2022-12-29T05:53:17;1.33;;;1.10;;
6665;SDS011;3369;49.906;8.598;2022-12-29T05:55:43;0.97;;;0.93;;
6665;SDS011;3369;49.906;8.598;2022-12-29T05:58:11;1.37;;;1.00;;
6665;SDS011;3369;49.906;8.598;2022-12-29T06:00:36;1.33;;;1.20;;
6665;SDS011;3369;49.906;8.598;2022-12-29T06:03:02;1.20;;;1.10;;
6665;SDS011;3369;49.906;8.598;2022-12-29T06:05:28;1.13;;;0.93;;
6665;SDS011;3369;49.906;8.598;2022-12-29T06:07:54;1.47;;;1.00;;
6665;SDS011;3369;49.906;8.598;2022-12-29T06:10:20;1.40;;;1.13;;
6665;SDS011;3369;49.906;8.598;2022-12-29T06:12:45;0.90;;;0.90;;
6665;SDS011;3369;49.906;8.598;2022-12-29T06:15:12;2.40;;;1.27;;
6665;SDS011;3369;49.906;8.598;2022-12-29T06:17:37;3.27;;;1.30;;
6665;SDS011;3369;49.906;8.598;2022-12-29T06:20:04;1.50;;;1.40;;
6665;SDS011;3369;49.906;8.598;2022-12-29T06:22:30;1.97;;;1.30;;
6665;SDS011;3369;49.906;8.598;2022-12-29T06:24:56;1.70;;;1.03;;
6665;SDS011;3369;49.906;8.598;2022-12-29T06:27:21;2.60;;;1.13;;
6665;SDS011;3369;49.906;8.598;2022-12-29T06:29:47;1.53;;;1.07;;
6665;SDS011;3369;49.906;8.598;2022-12-29T06:32:13;2.63;;;1.30;;
6665;SDS011;3369;49.906;8.598;2022-12-29T06:34:38;1.87;;;1.17;;
6665;SDS011;3369;49.906;8.598;2022-12-29T06:37:04;1.33;;;1.23;;
6665;SDS011;3369;49.906;8.598;2022-12-29T06:39:29;2.70;;;1.23;;
6665;SDS011;3369;49.906;8.598;2022-12-29T06:41:55;2.10;;;1.40;;
6665;SDS011;3369;49.906;8.598;2022-12-29T06:44:21;3.57;;;1.50;;
6665;SDS011;3369;49.906;8.598;2022-12-29T06:46:47;1.37;;;1.17;;
6665;SDS011;3369;49.906;8.598;2022-12-29T06:49:13;2.63;;;1.47;;
6665;SDS011;3369;49.906;8.598;2022-12-29T06:51:39;2.00;;;1.30;;
6665;SDS011;3369;49.906;8.598;2022-12-29T06:54:04;2.53;;;1.70;;
6665;SDS011;3369;49.906;8.598;2022-12-29T06:56:30;2.53;;;1.50;;
6665;SDS011;3369;49.906;8.598;2022-12-29T06:58:56;2.50;;;1.60;;
6665;SDS011;3369;49.906;8.598;2022-12-29T07:01:21;2.10;;;1.33;;
6665;SDS011;3369;49.906;8.598;2022-12-29T07:03:47;2.40;;;1.40;;
6665;SDS011;3369;49.906;8.598;2022-12-29T07:06:13;1.63;;;1.50;;
6665;SDS011;3369;49.906;8.598;2022-12-29T07:08:38;1.60;;;1.50;;
6665;SDS011;3369;49.906;8.598;2022-12-29T07:11:05;1.57;;;1.10;;
6665;SDS011;3369;49.906;8.598;2022-12-29T07:13:30;1.40;;;1.30;;
6665;SDS011;3369;49.906;8.598;2022-12-29T07:15:56;1.53;;;1.43;;
6665;SDS011;3369;49.906;8.598;2022-12-29T07:18:22;2.57;;;1.43;;
6665;SDS011;3369;49.906;8.598;2022-12-29T07:20:47;3.00;;;1.60;;
6665;SDS011;3369;49.906;8.598;2022-12-29T07:23:13;1.80;;;1.60;;
6665;SDS011;3369;49.906;8.598;2022-12-29T07:25:39;3.40;;;1.57;;
6665;SDS011;3369;49.906;8.598;2022-12-29T07:28:06;3.03;;;1.60;;
6665;SDS011;3369;49.906;8.598;2022-12-29T07:30:32;2.37;;;1.80;;
6665;SDS011;3369;49.906;8.598;2022-12-29T07:32:58;2.37;;;1.70;;
6665;SDS011;3369;49.906;8.598;2022-12-29T07:35:24;3.80;;;2.83;;
6665;SDS011;3369;49.906;8.598;2022-12-29T07:37:49;4.63;;;2.10;;
6665;SDS011;3369;49.906;8.598;2022-12-29T07:40:15;2.63;;;1.63;;
6665;SDS011;3369;49.906;8.598;2022-12-29T07:42:41;3.77;;;1.83;;
6665;SDS011;3369;49.906;8.598;2022-12-29T07:45:06;4.17;;;1.80;;
6665;SDS011;3369;49.906;8.598;2022-12-29T07:47:34;1.80;;;1.70;;
6665;SDS011;3369;49.906;8.598;2022-12-29T07:49:59;1.77;;;1.53;;
6665;SDS011;3369;49.906;8.598;2022-12-29T07:52:25;3.50;;;1.87;;
6665;SDS011;3369;49.906;8.598;2022-12-29T07:54:51;4.37;;;1.90;;
6665;SDS011;3369;49.906;8.598;2022-12-29T07:57:16;4.37;;;2.03;;
6665;SDS011;3369;49.906;8.598;2022-12-29T07:59:42;2.80;;;1.80;;
6665;SDS011;3369;49.906;8.598;2022-12-29T08:02:11;1.70;;;1.57;;
6665;SDS011;3369;49.906;8.598;2022-12-29T08:04:37;3.20;;;1.67;;
6665;SDS011;3369;49.906;8.598;2022-12-29T08:07:03;3.17;;;1.70;;
6665;SDS011;3369;49.906;8.598;2022-12-29T08:09:28;1.83;;;1.57;;
6665;SDS011;3369;49.906;8.598;2022-12-29T08:11:54;2.00;;;1.80;;
6665;SDS011;3369;49.906;8.598;2022-12-29T08:14:19;3.33;;;1.60;;
6665;SDS011;3369;49.906;8.598;2022-12-29T08:16:45;3.00;;;1.83;;
6665;SDS011;3369;49.906;8.598;2022-12-29T08:19:12;3.00;;;2.00;;
6665;SDS011;3369;49.906;8.598;2022-12-29T08:21:38;2.87;;;1.53;;
6665;SDS011;3369;49.906;8.598;2022-12-29T08:24:04;1.50;;;1.40;;
6665;SDS011;3369;49.906;8.598;2022-12-29T08:26:30;4.50;;;1.70;;
6665;SDS011;3369;49.906;8.598;2022-12-29T08:28:56;2.33;;;1.40;;
6665;SDS011;3369;49.906;8.598;2022-12-29T08:31:22;2.50;;;1.67;;
6665;SDS011;3369;49.906;8.598;2022-12-29T08:33:48;3.20;;;1.60;;
6665;SDS011;3369;49.906;8.598;2022-12-29T08:36:14;2.47;;;1.63;;
6665;SDS011;3369;49.906;8.598;2022-12-29T08:38:40;4.43;;;1.80;;
6665;SDS011;3369;49.906;8.598;2022-12-29T08:41:05;1.90;;;1.50;;
6665;SDS011;3369;49.906;8.598;2022-12-29T08:43:31;2.63;;;1.90;;
6665;SDS011;3369;49.906;8.598;2022-12-29T08:45:57;2.53;;;1.70;;
6665;SDS011;3369;49.906;8.598;2022-12-29T08:48:23;3.57;;;2.10;;
6665;SDS011;3369;49.906;8.598;2022-12-29T08:50:49;1.70;;;1.60;;
6665;SDS011;3369;49.906;8.598;2022-12-29T08:53:15;1.90;;;1.70;;
6665;SDS011;3369;49.906;8.598;2022-12-29T08:55:44;1.80;;;1.60;;
6665;SDS011;3369;49.906;8.598;2022-12-29T08:58:11;3.60;;;2.00;;
6665;SDS011;3369;49.906;8.598;2022-12-29T09:00:39;2.70;;;1.77;;
6665;SDS011;3369;49.906;8.598;2022-12-29T09:03:08;3.60;;;1.83;;
6665;SDS011;3369;49.906;8.598;2022-12-29T09:05:34;2.57;;;1.90;;
6665;SDS011;3369;49.906;8.598;2022-12-29T09:07:59;2.30;;;2.00;;
6665;SDS011;3369;49.906;8.598;2022-12-29T09:10:25;3.30;;;2.10;;
6665;SDS011;3369;49.906;8.598;2022-12-29T09:12:51;2.80;;;2.10;;
6665;SDS011;3369;49.906;8.598;2022-12-29T09:15:16;1.80;;;1.70;;
6665;SDS011;3369;49.906;8.598;2022-12-29T09:17:42;2.27;;;2.10;;
6665;SDS011;3369;49.906;8.598;2022-12-29T09:20:15;3.00;;;1.83;;
6665;SDS011;3369;49.906;8.598;2022-12-29T09:22:42;4.93;;;1.93;;
6665;SDS011;3369;49.906;8.598;2022-12-29T09:25:09;4.07;;;1.70;;
6665;SDS011;3369;49.906;8.598;2022-12-29T09:27:36;2.93;;;1.97;;
6665;SDS011;3369;49.906;8.598;2022-12-29T09:30:05;2.83;;;1.70;;
6665;SDS011;3369;49.906;8.598;2022-12-29T09:32:33;3.27;;;1.87;;
6665;SDS011;3369;49.906;8.598;2022-12-29T09:34:59;2.23;;;1.83;;
6665;SDS011;3369;49.906;8.598;2022-12-29T09:37:25;2.53;;;1.70;;
6665;SDS011;3369;49.906;8.598;2022-12-29T09:39:50;1.90;;;1.80;;
6665;SDS011;3369;49.906;8.598;2022-12-29T09:42:18;1.80;;;1.70;;
6665;SDS011;3369;49.906;8.598;2022-12-29T09:47:41;2.93;;;1.80;;
6665;SDS011;3369;49.906;8.598;2022-12-29T09:52:44;2.30;;;1.87;;
6665;SDS011;3369;49.906;8.598;2022-12-29T09:55:28;1.73;;;1.40;;
6665;SDS011;3369;49.906;8.598;2022-12-29T09:58:04;2.37;;;2.00;;
6665;SDS011;3369;49.906;8.598;2022-12-29T10:00:38;5.47;;;2.20;;
6665;SDS011;3369;49.906;8.598;2022-12-29T10:03:14;4.40;;;2.33;;
6665;SDS011;3369;49.906;8.598;2022-12-29T10:06:06;3.10;;;1.67;;
6665;SDS011;3369;49.906;8.598;2022-12-29T10:08:35;3.77;;;2.03;;
6665;SDS011;3369;49.906;8.598;2022-12-29T10:11:22;5.43;;;1.67;;
6665;SDS011;3369;49.906;8.598;2022-12-29T10:16:36;2.23;;;1.70;;
6665;SDS011;3369;49.906;8.598;2022-12-29T10:22:04;4.13;;;3.07;;
6665;SDS011;3369;49.906;8.598;2022-12-29T10:24:39;3.43;;;1.73;;
6665;SDS011;3369;49.906;8.598;2022-12-29T10:27:10;3.20;;;1.77;;
6665;SDS011;3369;49.906;8.598;2022-12-29T10:29:39;2.67;;;1.73;;
6665;SDS011;3369;49.906;8.598;2022-12-29T10:32:18;1.27;;;1.17;;
6665;SDS011;3369;49.906;8.598;2022-12-29T10:34:58;1.93;;;1.63;;
6665;SDS011;3369;49.906;8.598;2022-12-29T10:37:35;3.10;;;1.20;;
6665;SDS011;3369;49.906;8.598;2022-12-29T10:42:50;1.83;;;1.03;;
6665;SDS011;3369;49.906;8.598;2022-12-29T10:45:18;1.20;;;1.10;;
6665;SDS011;3369;49.906;8.598;2022-12-29T10:47:51;1.40;;;1.00;;
6665;SDS011;3369;49.906;8.598;2022-12-29T10:50:41;2.00;;;1.20;;
6665;SDS011;3369;49.906;8.598;2022-12-29T10:53:08;3.50;;;1.70;;
6665;SDS011;3369;49.906;8.598;2022-12-29T10:55:42;1.47;;;1.37;;
6665;SDS011;3369;49.906;8.598;2022-12-29T10:58:10;2.30;;;1.77;;
6665;SDS011;3369;49.906;8.598;2022-12-29T11:00:38;5.13;;;2.43;;
6665;SDS011;3369;49.906;8.598;2022-12-29T11:03:26;2.30;;;2.10;;
6665;SDS011;3369;49.906;8.598;2022-12-29T11:08:53;1.50;;;1.40;;
6665;SDS011;3369;49.906;8.598;2022-12-29T11:11:26;2.17;;;1.97;;
6665;SDS011;3369;49.906;8.598;2022-12-29T11:13:58;2.47;;;1.73;;
6665;SDS011;3369;49.906;8.598;2022-12-29T11:16:44;3.63;;;1.60;;
6665;SDS011;3369;49.906;8.598;2022-12-29T11:19:30;2.70;;;1.57;;
6665;SDS011;3369;49.906;8.598;2022-12-29T11:24:54;1.60;;;1.50;;
6665;SDS011;3369;49.906;8.598;2022-12-29T11:27:30;1.77;;;1.67;;
6665;SDS011;3369;49.906;8.598;2022-12-29T11:29:55;1.80;;;1.50;;
6665;SDS011;3369;49.906;8.598;2022-12-29T11:34:48;1.90;;;1.50;;
6665;SDS011;3369;49.906;8.598;2022-12-29T11:37:18;2.23;;;1.33;;
6665;SDS011;3369;49.906;8.598;2022-12-29T11:42:55;1.23;;;1.00;;
6665;SDS011;3369;49.906;8.598;2022-12-29T11:45:29;2.07;;;1.10;;
6665;SDS011;3369;49.906;8.598;2022-12-29T11:47:58;1.30;;;1.20;;
6665;SDS011;3369;49.906;8.598;2022-12-29T11:50:29;1.53;;;1.00;;
6665;SDS011;3369;49.906;8.598;2022-12-29T11:53:01;1.80;;;0.90;;
6665;SDS011;3369;49.906;8.598;2022-12-29T11:55:30;2.17;;;1.30;;
6665;SDS011;3369;49.906;8.598;2022-12-29T11:57:57;1.10;;;0.90;;
6665;SDS011;3369;49.906;8.598;2022-12-29T12:00:27;1.27;;;0.90;;
6665;SDS011;3369;49.906;8.598;2022-12-29T12:08:13;1.73;;;1.50;;
6665;SDS011;3369;49.906;8.598;2022-12-29T12:11:12;2.27;;;1.50;;
6665;SDS011;3369;49.906;8.598;2022-12-29T12:13:55;1.00;;;1.00;;
6665;SDS011;3369;49.906;8.598;2022-12-29T12:16:37;2.20;;;1.30;;
6665;SDS011;3369;49.906;8.598;2022-12-29T12:19:44;1.53;;;1.20;;
6665;SDS011;3369;49.906;8.598;2022-12-29T12:22:37;1.30;;;1.00;;
6665;SDS011;3369;49.906;8.598;2022-12-29T12:25:11;1.77;;;1.40;;
6665;SDS011;3369;49.906;8.598;2022-12-29T12:27:43;1.53;;;1.40;;
6665;SDS011;3369;49.906;8.598;2022-12-29T12:32:56;2.80;;;1.90;;
6665;SDS011;3369;49.906;8.598;2022-12-29T12:48:52;1.93;;;1.23;;
6665;SDS011;3369;49.906;8.598;2022-12-29T12:52:01;1.90;;;1.47;;
6665;SDS011;3369;49.906;8.598;2022-12-29T12:57:40;3.27;;;1.80;;
6665;SDS011;3369;49.906;8.598;2022-12-29T13:00:28;1.63;;;1.03;;
6665;SDS011;3369;49.906;8.598;2022-12-29T13:03:10;1.97;;;1.53;;
6665;SDS011;3369;49.906;8.598;2022-12-29T13:06:00;3.23;;;1.60;;
6665;SDS011;3369;49.906;8.598;2022-12-29T13:11:39;2.60;;;1.20;;
6665;SDS011;3369;49.906;8.598;2022-12-29T13:20:02;2.00;;;1.27;;
6665;SDS011;3369;49.906;8.598;2022-12-29T13:22:46;1.73;;;1.23;;
6665;SDS011;3369;49.906;8.598;2022-12-29T13:27:57;1.53;;;1.20;;
6665;SDS011;3369;49.906;8.598;2022-12-29T13:30:36;2.13;;;1.10;;
6665;SDS011;3369;49.906;8.598;2022-12-29T13:33:23;1.10;;;1.00;;
6665;SDS011;3369;49.906;8.598;2022-12-29T13:35:58;2.13;;;1.30;;
6665;SDS011;3369;49.906;8.598;2022-12-29T13:38:45;4.97;;;1.30;;
6665;SDS011;3369;49.906;8.598;2022-12-29T13:41:16;2.87;;;1.57;;
6665;SDS011;3369;49.906;8.598;2022-12-29T13:43:52;5.13;;;1.37;;
6665;SDS011;3369;49.906;8.598;2022-12-29T13:46:21;5.27;;;1.33;;
6665;SDS011;3369;49.906;8.598;2022-12-29T13:48:58;1.60;;;1.20;;
6665;SDS011;3369;49.906;8.598;2022-12-29T13:51:35;1.67;;;1.10;;
6665;SDS011;3369;49.906;8.598;2022-12-29T13:54:18;1.90;;;1.63;;
6665;SDS011;3369;49.906;8.598;2022-12-29T13:57:07;2.50;;;1.37;;
6665;SDS011;3369;49.906;8.598;2022-12-29T13:59:50;1.83;;;1.17;;
6665;SDS011;3369;49.906;8.598;2022-12-29T14:02:40;2.73;;;1.10;;
6665;SDS011;3369;49.906;8.598;2022-12-29T14:07:43;2.37;;;1.10;;
6665;SDS011;3369;49.906;8.598;2022-12-29T14:13:13;3.50;;;1.30;;
6665;SDS011;3369;49.906;8.598;2022-12-29T14:15:45;2.90;;;1.50;;
6665;SDS011;3369;49.906;8.598;2022-12-29T14:18:26;3.83;;;1.27;;
6665;SDS011;3369;49.906;8.598;2022-12-29T14:28:32;1.27;;;1.10;;
6665;SDS011;3369;49.906;8.598;2022-12-29T14:31:00;2.20;;;1.30;;
6665;SDS011;3369;49.906;8.598;2022-12-29T14:54:49;1.93;;;1.20;;
6665;SDS011;3369;49.906;8.598;2022-12-29T14:57:19;2.93;;;1.10;;
6665;SDS011;3369;49.906;8.598;2022-12-29T14:59:46;1.13;;;0.90;;
6665;SDS011;3369;49.906;8.598;2022-12-29T15:02:15;2.20;;;1.17;;
6665;SDS011;3369;49.906;8.598;2022-12-29T15:04:44;3.30;;;1.60;;
6665;SDS011;3369;49.906;8.598;2022-12-29T15:07:12;1.50;;;1.00;;
6665;SDS011;3369;49.906;8.598;2022-12-29T15:09:41;1.30;;;1.20;;
6665;SDS011;3369;49.906;8.598;2022-12-29T15:14:47;1.73;;;0.80;;
6665;SDS011;3369;49.906;8.598;2022-12-29T15:19:53;2.47;;;1.13;;
6665;SDS011;3369;49.906;8.598;2022-12-29T15:22:20;2.73;;;1.30;;
6665;SDS011;3369;49.906;8.598;2022-12-29T15:24:46;1.53;;;1.17;;
6665;SDS011;3369;49.906;8.598;2022-12-29T15:27:15;1.70;;;1.10;;
6665;SDS011;3369;49.906;8.598;2022-12-29T15:29:44;1.77;;;1.00;;
6665;SDS011;3369;49.906;8.598;2022-12-29T15:32:26;1.70;;;1.00;;
6665;SDS011;3369;49.906;8.598;2022-12-29T15:34:54;1.30;;;0.90;;
6665;SDS011;3369;49.906;8.598;2022-12-29T15:37:24;2.07;;;1.07;;
6665;SDS011;3369;49.906;8.598;2022-12-29T15:39:57;1.83;;;1.10;;
6665;SDS011;3369;49.906;8.598;2022-12-29T15:44:57;3.30;;;1.17;;
6665;SDS011;3369;49.906;8.598;2022-12-29T15:47:27;1.90;;;1.03;;
6665;SDS011;3369;49.906;8.598;2022-12-29T15:52:47;1.83;;;1.03;;
6665;SDS011;3369;49.906;8.598;2022-12-29T15:55:20;3.03;;;1.00;;
6665;SDS011;3369;49.906;8.598;2022-12-29T15:57:57;3.37;;;1.20;;
6665;SDS011;3369;49.906;8.598;2022-12-29T16:00:28;2.13;;;1.20;;
6665;SDS011;3369;49.906;8.598;2022-12-29T16:02:55;2.33;;;1.13;;
6665;SDS011;3369;49.906;8.598;2022-12-29T16:05:23;2.50;;;0.93;;
6665;SDS011;3369;49.906;8.598;2022-12-29T16:07:57;1.63;;;0.97;;
6665;SDS011;3369;49.906;8.598;2022-12-29T16:10:28;2.30;;;1.20;;
6665;SDS011;3369;49.906;8.598;2022-12-29T16:13:18;1.83;;;0.90;;
6665;SDS011;3369;49.906;8.598;2022-12-29T16:15:51;1.20;;;1.10;;
6665;SDS011;3369;49.906;8.598;2022-12-29T16:18:25;1.57;;;1.10;;
6665;SDS011;3369;49.906;8.598;2022-12-29T16:20:54;2.17;;;1.17;;
6665;SDS011;3369;49.906;8.598;2022-12-29T16:23:28;2.57;;;1.10;;
6665;SDS011;3369;49.906;8.598;2022-12-29T16:25:55;1.63;;;0.97;;
6665;SDS011;3369;49.906;8.598;2022-12-29T16:28:30;4.27;;;1.20;;
6665;SDS011;3369;49.906;8.598;2022-12-29T16:31:15;1.53;;;0.90;;
6665;SDS011;3369;49.906;8.598;2022-12-29T16:33:53;1.20;;;0.97;;
6665;SDS011;3369;49.906;8.598;2022-12-29T16:37:03;1.67;;;1.27;;
6665;SDS011;3369;49.906;8.598;2022-12-29T16:39:37;2.10;;;1.10;;
6665;SDS011;3369;49.906;8.598;2022-12-29T16:45:05;2.10;;;1.00;;
6665;SDS011;3369;49.906;8.598;2022-12-29T16:47:45;3.03;;;1.07;;
6665;SDS011;3369;49.906;8.598;2022-12-29T16:50:13;3.90;;;1.40;;
6665;SDS011;3369;49.906;8.598;2022-12-29T16:52:46;2.73;;;1.40;;
6665;SDS011;3369;49.906;8.598;2022-12-29T16:55:15;1.00;;;1.00;;
6665;SDS011;3369;49.906;8.598;2022-12-29T16:57:42;1.30;;;1.07;;
6665;SDS011;3369;49.906;8.598;2022-12-29T17:00:17;1.93;;;1.10;;
6665;SDS011;3369;49.906;8.598;2022-12-29T17:02:57;2.40;;;1.57;;
6665;SDS011;3369;49.906;8.598;2022-12-29T17:05:24;2.47;;;1.00;;
6665;SDS011;3369;49.906;8.598;2022-12-29T17:07:50;2.53;;;1.23;;
6665;SDS011;3369;49.906;8.598;2022-12-29T17:10:20;2.10;;;1.23;;
6665;SDS011;3369;49.906;8.598;2022-12-29T17:12:46;4.17;;;1.33;;
6665;SDS011;3369;49.906;8.598;2022-12-29T17:17:46;3.73;;;1.23;;
6665;SDS011;3369;49.906;8.598;2022-12-29T17:22:42;2.03;;;1.20;;
6665;SDS011;3369;49.906;8.598;2022-12-29T17:25:11;4.63;;;1.50;;
6665;SDS011;3369;49.906;8.598;2022-12-29T17:27:46;4.43;;;1.43;;
6665;SDS011;3369;49.906;8.598;2022-12-29T17:30:17;1.93;;;1.10;;
6665;SDS011;3369;49.906;8.598;2022-12-29T17:32:49;3.07;;;1.43;;
6665;SDS011;3369;49.906;8.598;2022-12-29T17:35:25;4.80;;;1.50;;
6665;SDS011;3369;49.906;8.598;2022-12-29T17:37:52;3.07;;;1.23;;
6665;SDS011;3369;49.906;8.598;2022-12-29T17:40:27;3.67;;;1.60;;
6665;SDS011;3369;49.906;8.598;2022-12-29T17:42:56;4.77;;;1.47;;
6665;SDS011;3369;49.906;8.598;2022-12-29T17:45:27;7.23;;;1.33;;
6665;SDS011;3369;49.906;8.598;2022-12-29T17:47:54;4.10;;;1.63;;
6665;SDS011;3369;49.906;8.598;2022-12-29T17:50:22;3.13;;;1.53;;
6665;SDS011;3369;49.906;8.598;2022-12-29T17:52:53;4.93;;;2.07;;
6665;SDS011;3369;49.906;8.598;2022-12-29T17:55:22;3.30;;;2.10;;
6665;SDS011;3369;49.906;8.598;2022-12-29T17:57:49;14.77;;;6.90;;
6665;SDS011;3369;49.906;8.598;2022-12-29T18:00:23;8.40;;;4.17;;
6665;SDS011;3369;49.906;8.598;2022-12-29T18:02:53;4.33;;;2.07;;
6665;SDS011;3369;49.906;8.598;2022-12-29T18:05:27;4.27;;;1.90;;
6665;SDS011;3369;49.906;8.598;2022-12-29T18:07:55;3.70;;;1.50;;